Time;durP1;ratioP1;P1;durP2;ratioP2;P2;SDS_P1;SDS_P2;PMS_P1;PMS_P2;Temp;Humidity;BMP_temperature;BMP_pressure;BME280_temperature;BME280_humidity;BME280_pressure;Samples;Min_cycle;Max_cycle;Signal;HPM_P1;HPM_P2
2021/07/05 00:01:44;;;;;;;4.53;3.50;;;19.30;99.30;;;;;;5059119;28;20634;-49
2021/07/05 00:04:12;;;;;;;5.97;3.73;;;19.30;99.30;;;;;;5051324;28;20618;-49
2021/07/05 00:06:39;;;;;;;3.87;3.57;;;19.20;99.30;;;;;;5050731;28;20662;-50
2021/07/05 00:09:06;;;;;;;5.10;3.87;;;19.30;99.30;;;;;;5050923;28;20626;-50
2021/07/05 00:11:34;;;;;;;3.73;3.30;;;19.20;99.20;;;;;;5050169;28;20634;-49
2021/07/05 00:14:01;;;;;;;5.83;3.50;;;19.30;99.30;;;;;;5050827;28;20669;-50
2021/07/05 00:16:29;;;;;;;6.80;4.23;;;19.30;99.20;;;;;;5050849;28;20690;-50
2021/07/05 00:18:57;;;;;;;3.50;3.20;;;19.30;99.20;;;;;;5050574;28;21198;-50
2021/07/05 00:21:24;;;;;;;4.23;3.50;;;19.30;99.20;;;;;;5050577;28;20626;-49
2021/07/05 00:23:51;;;;;;;3.00;2.80;;;19.20;99.10;;;;;;5049802;28;20772;-50
2021/07/05 00:26:18;;;;;;;5.40;3.03;;;19.30;99.10;;;;;;5050532;28;21028;-49
2021/07/05 00:28:45;;;;;;;4.33;3.80;;;19.20;99.00;;;;;;5050120;28;20680;-50
2021/07/05 00:31:13;;;;;;;3.17;2.90;;;19.20;99.00;;;;;;5049635;28;20671;-50
2021/07/05 00:33:41;;;;;;;3.50;3.17;;;19.30;99.00;;;;;;5050527;28;21268;-50
2021/07/05 00:36:08;;;;;;;4.40;3.70;;;19.20;99.00;;;;;;5050458;28;20654;-50
2021/07/05 00:38:36;;;;;;;4.17;3.57;;;19.20;99.00;;;;;;5050140;28;20654;-50
2021/07/05 00:41:03;;;;;;;3.53;3.00;;;19.20;99.00;;;;;;5050114;28;20659;-50
2021/07/05 00:43:30;;;;;;;4.23;3.73;;;19.20;99.00;;;;;;5050308;28;20723;-50
2021/07/05 00:45:58;;;;;;;4.20;3.80;;;19.20;99.00;;;;;;5050148;28;20690;-50
2021/07/05 00:48:25;;;;;;;4.50;3.63;;;19.20;99.30;;;;;;5050496;28;20699;-50
2021/07/05 00:50:54;;;;;;;3.80;3.50;;;19.10;99.00;;;;;;5050357;28;20657;-50
2021/07/05 00:53:21;;;;;;;3.70;2.93;;;19.20;99.10;;;;;;5050360;28;20658;-49
2021/07/05 00:55:48;;;;;;;4.10;3.20;;;19.10;99.00;;;;;;5030349;28;21273;-50
2021/07/05 00:58:17;;;;;;;3.87;2.93;;;19.10;99.10;;;;;;5046346;28;20678;-50
2021/07/05 01:00:44;;;;;;;6.53;3.00;;;19.10;99.10;;;;;;5049788;28;20705;-50
2021/07/05 01:03:12;;;;;;;4.33;2.87;;;19.10;99.10;;;;;;5050107;28;20626;-50
2021/07/05 01:05:39;;;;;;;3.87;3.00;;;19.00;99.00;;;;;;5050079;28;21242;-48
2021/07/05 01:08:07;;;;;;;3.13;2.80;;;19.00;99.10;;;;;;5049903;28;20637;-49
2021/07/05 01:10:35;;;;;;;3.87;3.57;;;19.00;99.10;;;;;;5050464;28;20672;-50
2021/07/05 01:13:02;;;;;;;6.07;3.57;;;19.00;99.10;;;;;;5049156;28;20773;-49
2021/07/05 01:15:30;;;;;;;3.53;3.23;;;19.00;99.10;;;;;;5050257;28;20618;-47
2021/07/05 01:17:58;;;;;;;3.50;3.20;;;19.00;99.10;;;;;;5050031;28;20657;-49
2021/07/05 01:20:27;;;;;;;3.47;3.17;;;19.00;99.10;;;;;;5049011;28;20694;-48
2021/07/05 01:22:56;;;;;;;3.70;3.40;;;19.00;99.10;;;;;;5050528;28;20665;-47
2021/07/05 01:25:25;;;;;;;4.67;3.53;;;18.90;99.10;;;;;;5050259;28;20680;-47
2021/07/05 01:27:52;;;;;;;4.70;3.10;;;18.90;99.20;;;;;;5050435;28;20684;-49
2021/07/05 01:30:20;;;;;;;4.43;3.60;;;18.90;99.20;;;;;;5049562;28;20660;-48
2021/07/05 01:32:48;;;;;;;3.47;3.17;;;18.90;99.30;;;;;;5050754;28;20676;-48
2021/07/05 01:35:15;;;;;;;3.07;2.77;;;18.90;99.40;;;;;;5053011;28;20699;-48
2021/07/05 01:37:43;;;;;;;2.80;2.60;;;18.90;99.70;;;;;;5053915;28;20634;-48
2021/07/05 01:40:16;;;;;;;4.77;3.17;;;19.00;99.40;;;;;;5053738;28;20694;-49
2021/07/05 01:42:46;;;;;;;5.27;3.60;;;19.00;99.40;;;;;;5053771;28;21198;-49
2021/07/05 01:45:13;;;;;;;5.53;3.53;;;19.00;99.30;;;;;;5033550;28;20726;-49
2021/07/05 01:47:40;;;;;;;3.00;2.80;;;19.00;99.30;;;;;;5050828;28;21178;-49
2021/07/05 01:50:08;;;;;;;3.23;2.80;;;19.00;99.30;;;;;;5052905;28;20614;-50
2021/07/05 01:52:35;;;;;;;4.17;3.77;;;19.00;99.40;;;;;;5053211;28;20657;-50
2021/07/05 01:55:03;;;;;;;3.40;3.10;;;19.00;99.40;;;;;;5072136;28;20660;-49
2021/07/05 01:57:33;;;;;;;3.10;2.90;;;19.00;99.40;;;;;;5067420;28;20683;-49
2021/07/05 02:00:01;;;;;;;5.40;3.10;;;19.00;99.40;;;;;;5053470;28;20696;-49
2021/07/05 02:02:29;;;;;;;3.60;3.30;;;19.00;99.40;;;;;;5053373;28;20649;-50
2021/07/05 02:04:56;;;;;;;3.60;3.30;;;19.00;99.40;;;;;;5053148;28;20638;-50
2021/07/05 02:07:23;;;;;;;4.27;3.10;;;19.00;99.40;;;;;;5053214;28;20696;-48
2021/07/05 02:09:50;;;;;;;3.53;3.30;;;19.10;99.40;;;;;;5053239;28;20753;-48
2021/07/05 02:12:18;;;;;;;4.40;3.13;;;19.00;99.40;;;;;;5053229;28;20654;-50
2021/07/05 02:14:46;;;;;;;4.60;3.97;;;19.00;99.40;;;;;;5052895;28;20682;-49
2021/07/05 02:17:13;;;;;;;3.60;3.00;;;19.00;99.40;;;;;;5053549;28;20693;-49
2021/07/05 02:19:41;;;;;;;4.33;3.93;;;18.90;99.40;;;;;;5053089;28;20713;-49
2021/07/05 02:22:08;;;;;;;4.50;3.40;;;18.90;99.50;;;;;;5053384;28;20626;-49
2021/07/05 02:24:36;;;;;;;3.10;2.80;;;18.90;99.60;;;;;;5052919;28;20665;-49
2021/07/05 02:27:04;;;;;;;4.47;3.00;;;18.90;99.70;;;;;;5053035;28;21070;-48
2021/07/05 02:29:31;;;;;;;3.90;3.60;;;18.90;99.70;;;;;;5052993;28;20661;-48
2021/07/05 02:31:59;;;;;;;3.70;3.40;;;18.90;99.70;;;;;;5052571;28;21018;-48
2021/07/05 02:34:27;;;;;;;3.03;2.83;;;18.90;99.70;;;;;;5053140;28;21047;-48
2021/07/05 02:36:54;;;;;;;3.77;3.47;;;18.90;99.70;;;;;;5052590;28;21213;-48
2021/07/05 02:39:21;;;;;;;4.37;2.90;;;18.90;99.80;;;;;;5052293;28;20688;-48
2021/07/05 02:41:48;;;;;;;6.90;3.13;;;19.00;99.90;;;;;;5052743;28;20661;-48
2021/07/05 02:44:16;;;;;;;3.13;2.80;;;19.00;99.80;;;;;;5052429;28;20689;-50
2021/07/05 02:46:43;;;;;;;3.30;3.00;;;19.00;99.80;;;;;;5051867;28;20689;-48
2021/07/05 02:49:11;;;;;;;3.40;3.10;;;19.00;99.70;;;;;;5052661;28;20666;-49
2021/07/05 02:51:38;;;;;;;3.90;3.50;;;19.00;99.70;;;;;;5051893;28;20672;-49
2021/07/05 02:54:06;;;;;;;3.30;2.83;;;19.10;99.70;;;;;;5052308;28;20653;-49
2021/07/05 02:56:33;;;;;;;2.80;2.60;;;19.00;99.60;;;;;;5052174;28;20741;-49
2021/07/05 02:59:01;;;;;;;5.33;2.27;;;19.10;99.70;;;;;;5052788;28;20676;-49
2021/07/05 03:01:28;;;;;;;2.57;2.40;;;19.10;99.60;;;;;;5052199;28;20660;-49
2021/07/05 03:03:55;;;;;;;3.53;3.23;;;19.10;99.60;;;;;;5052516;28;20673;-49
2021/07/05 03:06:24;;;;;;;3.23;1.97;;;19.10;99.60;;;;;;5052535;28;20781;-49
2021/07/05 03:08:51;;;;;;;3.20;2.60;;;19.10;99.60;;;;;;5052440;28;21171;-49
2021/07/05 03:11:18;;;;;;;5.53;2.70;;;19.10;99.60;;;;;;5052251;28;21201;-48
2021/07/05 03:13:45;;;;;;;2.27;2.00;;;19.20;99.60;;;;;;5051450;28;20661;-47
2021/07/05 03:16:13;;;;;;;5.13;2.20;;;19.10;99.80;;;;;;5051587;28;21304;-49
2021/07/05 03:18:40;;;;;;;2.63;2.43;;;19.10;99.40;;;;;;5051762;28;20662;-48
2021/07/05 03:21:07;;;;;;;3.00;2.33;;;19.20;99.50;;;;;;5033776;28;20647;-46
2021/07/05 03:23:36;;;;;;;3.47;2.30;;;19.20;99.50;;;;;;5051334;28;21031;-47
2021/07/05 03:26:03;;;;;;;2.70;2.50;;;19.20;99.40;;;;;;5051335;28;20796;-48
2021/07/05 03:28:30;;;;;;;4.57;2.23;;;19.20;99.40;;;;;;5051761;28;20625;-47
2021/07/05 03:30:57;;;;;;;3.97;2.40;;;19.20;99.30;;;;;;5051799;28;21247;-48
2021/07/05 03:33:25;;;;;;;6.23;2.53;;;19.20;99.30;;;;;;5051579;28;20642;-48
2021/07/05 03:35:52;;;;;;;2.40;1.80;;;19.30;99.40;;;;;;5051717;28;20666;-48
2021/07/05 03:38:19;;;;;;;2.20;2.00;;;19.30;99.40;;;;;;5051283;28;21071;-49
2021/07/05 03:40:48;;;;;;;3.03;1.83;;;19.30;99.30;;;;;;5050766;28;21015;-47
2021/07/05 03:43:15;;;;;;;3.53;1.67;;;19.30;99.30;;;;;;5051115;28;20645;-49
2021/07/05 03:45:42;;;;;;;2.47;2.27;;;19.30;99.40;;;;;;5050445;28;20946;-49
2021/07/05 03:48:10;;;;;;;2.73;1.77;;;19.30;99.30;;;;;;5051457;28;20626;-49
2021/07/05 03:50:37;;;;;;;2.17;1.97;;;19.30;99.30;;;;;;5051246;28;20638;-48
2021/07/05 03:53:05;;;;;;;2.70;2.13;;;19.30;99.30;;;;;;5051520;28;21018;-47
2021/07/05 03:55:32;;;;;;;2.33;2.13;;;19.40;99.30;;;;;;5051316;28;20636;-47
2021/07/05 03:58:01;;;;;;;2.20;2.10;;;19.40;99.30;;;;;;5050162;28;21186;-47
2021/07/05 04:00:29;;;;;;;2.77;2.27;;;19.40;99.30;;;;;;5050546;28;20724;-49
2021/07/05 04:02:56;;;;;;;1.70;1.60;;;19.40;99.30;;;;;;5057991;28;20647;-49
2021/07/05 04:05:23;;;;;;;3.53;2.90;;;19.40;99.30;;;;;;5051121;28;21015;-50
2021/07/05 04:07:50;;;;;;;4.20;2.10;;;19.40;99.30;;;;;;5051227;28;20626;-49
2021/07/05 04:10:18;;;;;;;2.43;2.13;;;19.40;99.30;;;;;;5050778;28;20637;-50
2021/07/05 04:12:46;;;;;;;1.77;1.67;;;19.50;99.20;;;;;;5050489;28;20676;-50
2021/07/05 04:15:14;;;;;;;3.27;1.80;;;19.50;99.20;;;;;;5050366;28;20661;-50
2021/07/05 04:17:41;;;;;;;3.17;1.90;;;19.50;99.20;;;;;;5050763;28;20654;-50
2021/07/05 04:20:10;;;;;;;2.20;1.93;;;19.50;99.20;;;;;;5051022;28;20698;-48
2021/07/05 04:22:38;;;;;;;2.20;2.00;;;19.50;99.20;;;;;;5050490;28;21166;-50
2021/07/05 04:25:06;;;;;;;3.63;2.40;;;19.40;99.20;;;;;;5050933;28;20657;-50
2021/07/05 04:27:33;;;;;;;3.60;2.20;;;19.40;99.20;;;;;;5050762;28;20701;-50
2021/07/05 04:30:01;;;;;;;3.40;2.40;;;19.50;99.20;;;;;;5050941;28;20775;-50
2021/07/05 04:32:29;;;;;;;2.57;2.33;;;19.40;99.40;;;;;;5050498;28;21167;-49
2021/07/05 04:34:57;;;;;;;4.13;2.60;;;19.40;99.20;;;;;;5050552;28;21202;-50
2021/07/05 04:37:24;;;;;;;3.17;2.40;;;19.50;99.20;;;;;;5050942;28;20654;-49
2021/07/05 04:39:51;;;;;;;2.97;2.10;;;19.50;99.20;;;;;;5048697;28;20669;-48
2021/07/05 04:42:18;;;;;;;3.20;2.23;;;19.50;99.20;;;;;;5050889;28;21249;-49
2021/07/05 04:44:46;;;;;;;2.40;2.20;;;19.40;99.20;;;;;;5050451;28;20661;-48
2021/07/05 04:47:14;;;;;;;2.17;2.03;;;19.50;99.20;;;;;;5050017;28;20657;-49
2021/07/05 04:49:42;;;;;;;4.50;2.23;;;19.50;99.20;;;;;;5049565;28;20661;-48
2021/07/05 04:52:10;;;;;;;3.07;2.13;;;19.50;99.20;;;;;;5062601;28;20664;-50
2021/07/05 04:54:37;;;;;;;2.30;2.10;;;19.50;99.10;;;;;;5048780;28;21247;-49
2021/07/05 04:57:04;;;;;;;6.00;2.90;;;19.50;99.10;;;;;;5049331;28;20685;-50
2021/07/05 04:59:31;;;;;;;2.20;2.10;;;19.50;99.10;;;;;;5049039;28;20662;-50
2021/07/05 05:01:59;;;;;;;3.80;2.90;;;19.50;99.10;;;;;;5050697;28;20700;-48
2021/07/05 05:04:26;;;;;;;2.90;2.33;;;19.50;99.10;;;;;;5050078;28;20988;-47
2021/07/05 05:06:54;;;;;;;2.93;2.73;;;19.50;99.10;;;;;;5050250;28;21054;-48
2021/07/05 05:09:23;;;;;;;3.43;2.33;;;19.50;99.20;;;;;;5051102;28;20654;-48
2021/07/05 05:11:51;;;;;;;2.97;2.70;;;19.50;99.20;;;;;;5053542;28;20653;-48
2021/07/05 05:14:18;;;;;;;3.77;2.50;;;19.40;99.10;;;;;;5054181;28;20622;-50
2021/07/05 05:16:45;;;;;;;5.73;3.20;;;19.50;99.20;;;;;;5053135;28;20711;-49
2021/07/05 05:19:13;;;;;;;4.97;2.27;;;19.50;99.10;;;;;;5053263;28;21256;-49
2021/07/05 05:21:40;;;;;;;1.67;1.57;;;19.40;99.10;;;;;;5053824;28;21303;-50
2021/07/05 05:24:09;;;;;;;3.63;2.37;;;19.40;99.20;;;;;;5053244;28;20630;-50
2021/07/05 05:26:36;;;;;;;6.10;2.40;;;19.50;99.30;;;;;;5053647;28;20684;-50
2021/07/05 05:29:03;;;;;;;4.10;2.73;;;19.40;99.20;;;;;;5054204;28;20668;-50
2021/07/05 05:31:31;;;;;;;3.17;2.03;;;19.40;99.20;;;;;;5053688;28;20991;-49
2021/07/05 05:33:58;;;;;;;2.60;2.40;;;19.30;99.20;;;;;;5053794;28;21182;-50
2021/07/05 05:36:26;;;;;;;3.33;3.03;;;19.40;99.30;;;;;;5053380;28;20674;-49
2021/07/05 05:38:53;;;;;;;3.20;2.90;;;19.40;99.40;;;;;;5052850;28;20654;-50
2021/07/05 05:41:22;;;;;;;3.50;2.93;;;19.40;99.40;;;;;;5052907;28;20696;-49
2021/07/05 05:43:49;;;;;;;3.53;3.23;;;19.30;99.60;;;;;;5052141;28;20687;-49
2021/07/05 05:46:16;;;;;;;3.43;3.10;;;19.30;99.80;;;;;;5052807;28;20654;-49
2021/07/05 05:48:44;;;;;;;6.20;3.23;;;19.30;99.90;;;;;;5053426;28;20665;-50
2021/07/05 05:51:11;;;;;;;5.60;3.50;;;19.30;99.90;;;;;;5053249;28;20697;-49
2021/07/05 05:53:38;;;;;;;4.00;3.13;;;19.20;99.90;;;;;;5052704;28;20657;-49
2021/07/05 05:56:06;;;;;;;3.20;2.90;;;19.20;99.90;;;;;;5053524;28;21297;-50
2021/07/05 05:58:38;;;;;;;5.27;3.23;;;19.20;99.90;;;;;;5053857;28;20618;-49
2021/07/05 06:01:06;;;;;;;4.43;3.00;;;19.20;99.90;;;;;;5050837;28;20753;-49
2021/07/05 06:03:33;;;;;;;10.60;3.60;;;19.20;99.90;;;;;;5053775;28;20618;-51
2021/07/05 06:06:00;;;;;;;6.63;3.23;;;19.20;99.90;;;;;;5053480;28;20690;-50
2021/07/05 06:08:27;;;;;;;11.00;3.30;;;19.20;99.90;;;;;;5053706;28;20672;-50
2021/07/05 06:10:55;;;;;;;3.77;2.80;;;19.20;99.90;;;;;;5053226;28;20761;-49
2021/07/05 06:13:22;;;;;;;3.77;3.00;;;19.20;99.90;;;;;;5053004;28;20657;-50
2021/07/05 06:15:50;;;;;;;3.70;3.40;;;19.10;99.90;;;;;;5052289;28;20690;-50
2021/07/05 06:18:18;;;;;;;8.10;4.00;;;19.10;99.90;;;;;;5049468;28;20664;-49
2021/07/05 06:20:45;;;;;;;4.83;3.53;;;19.20;99.90;;;;;;5051433;28;20686;-49
2021/07/05 06:23:20;;;;;;;3.13;2.93;;;19.20;99.90;;;;;;5052380;28;20709;-50
2021/07/05 06:25:48;;;;;;;3.50;3.10;;;19.20;99.90;;;;;;5052814;28;20665;-50
2021/07/05 06:28:16;;;;;;;3.70;3.07;;;19.20;99.90;;;;;;5052606;28;20669;-51
2021/07/05 06:30:44;;;;;;;5.30;4.00;;;19.20;99.90;;;;;;5051992;28;20668;-51
2021/07/05 06:33:12;;;;;;;5.80;3.33;;;19.20;99.90;;;;;;5052084;28;20669;-49
2021/07/05 06:35:39;;;;;;;4.10;3.03;;;19.30;99.90;;;;;;5052202;28;20681;-49
2021/07/05 06:38:07;;;;;;;3.83;3.20;;;19.30;99.90;;;;;;5052791;28;20738;-50
2021/07/05 06:40:34;;;;;;;7.40;3.60;;;19.30;99.90;;;;;;5051452;28;20626;-48
2021/07/05 06:43:01;;;;;;;4.50;3.33;;;19.30;99.90;;;;;;5052412;28;20649;-50
2021/07/05 06:45:28;;;;;;;5.60;2.70;;;19.30;99.90;;;;;;5048253;28;20646;-49
2021/07/05 06:47:56;;;;;;;3.10;2.80;;;19.30;99.90;;;;;;5040209;28;20656;-49
2021/07/05 06:50:25;;;;;;;4.17;2.60;;;19.30;99.90;;;;;;5051975;28;20665;-49
2021/07/05 06:52:52;;;;;;;3.20;2.83;;;19.30;99.90;;;;;;5051937;28;20650;-49
2021/07/05 06:55:19;;;;;;;5.07;2.90;;;19.30;99.90;;;;;;5051644;28;20660;-49
2021/07/05 06:57:47;;;;;;;5.77;2.80;;;19.30;99.90;;;;;;5051435;28;20626;-49
2021/07/05 07:00:16;;;;;;;3.37;2.70;;;19.30;99.90;;;;;;5051635;28;20661;-47
2021/07/05 07:02:43;;;;;;;2.63;2.43;;;19.30;99.90;;;;;;5051759;28;20689;-49
2021/07/05 07:05:12;;;;;;;3.30;2.80;;;19.30;99.90;;;;;;5051384;28;20650;-48
2021/07/05 07:07:41;;;;;;;5.70;3.10;;;19.30;99.90;;;;;;5051902;28;20705;-49
2021/07/05 07:10:09;;;;;;;2.97;2.67;;;19.40;99.90;;;;;;5051472;28;20684;-47
2021/07/05 07:12:36;;;;;;;6.37;3.40;;;19.40;99.90;;;;;;5051035;28;20626;-48
2021/07/05 07:15:04;;;;;;;3.73;3.23;;;19.40;99.90;;;;;;5051080;28;20668;-48
2021/07/05 07:17:34;;;;;;;4.07;3.20;;;19.40;99.90;;;;;;5051357;28;21316;-48
2021/07/05 07:20:02;;;;;;;4.20;3.80;;;19.40;99.90;;;;;;5051291;28;21151;-48
2021/07/05 07:22:29;;;;;;;6.40;4.00;;;19.40;99.90;;;;;;5051499;28;20650;-47
2021/07/05 07:24:57;;;;;;;5.13;3.57;;;19.40;99.90;;;;;;5050607;28;20685;-48
2021/07/05 07:27:25;;;;;;;3.90;2.90;;;19.40;99.90;;;;;;5050751;28;20712;-47
2021/07/05 07:29:52;;;;;;;4.83;3.37;;;19.40;99.90;;;;;;5051281;28;20642;-49
2021/07/05 07:32:19;;;;;;;6.27;3.43;;;19.40;99.90;;;;;;5051399;28;20633;-48
2021/07/05 07:34:46;;;;;;;3.60;3.00;;;19.50;99.90;;;;;;5050703;28;20713;-48
2021/07/05 07:37:14;;;;;;;4.73;3.90;;;19.50;99.90;;;;;;5050395;28;20704;-49
2021/07/05 07:39:43;;;;;;;5.33;2.90;;;19.50;99.90;;;;;;5050720;28;20684;-48
2021/07/05 07:42:12;;;;;;;4.60;4.03;;;19.50;99.90;;;;;;5051087;28;21198;-49
2021/07/05 07:44:39;;;;;;;8.20;3.90;;;19.50;99.90;;;;;;5051190;28;20729;-48
2021/07/05 07:47:06;;;;;;;6.50;4.17;;;19.60;99.90;;;;;;5050119;28;20961;-49
2021/07/05 07:49:33;;;;;;;5.67;3.73;;;19.60;99.90;;;;;;5050714;28;20630;-48
2021/07/05 07:52:01;;;;;;;5.57;4.00;;;19.60;99.90;;;;;;5050491;28;20630;-48
2021/07/05 07:54:28;;;;;;;12.00;4.00;;;19.60;99.90;;;;;;5050887;28;20653;-50
2021/07/05 07:56:56;;;;;;;7.37;3.90;;;19.60;99.90;;;;;;5050652;28;20706;-47
2021/07/05 07:59:24;;;;;;;4.60;3.27;;;19.60;99.90;;;;;;5050994;28;20650;-48
2021/07/05 08:01:52;;;;;;;3.90;3.60;;;19.60;99.90;;;;;;5044907;28;20694;-50
2021/07/05 08:04:19;;;;;;;4.97;4.40;;;19.60;99.90;;;;;;5050107;28;20665;-49
2021/07/05 08:06:46;;;;;;;4.20;3.70;;;19.60;99.90;;;;;;5050717;28;20666;-50
2021/07/05 08:09:13;;;;;;;3.93;3.60;;;19.60;99.90;;;;;;5050232;28;20657;-50
2021/07/05 08:11:40;;;;;;;3.90;3.00;;;19.70;99.90;;;;;;5050217;28;20622;-50
2021/07/05 08:14:08;;;;;;;3.27;2.97;;;19.70;99.90;;;;;;5050040;28;20665;-50
2021/07/05 08:16:37;;;;;;;3.77;3.30;;;19.80;99.90;;;;;;5050597;28;20792;-50
2021/07/05 08:19:04;;;;;;;4.07;3.07;;;19.80;99.90;;;;;;5050025;28;20766;-51
2021/07/05 08:21:36;;;;;;;3.97;3.00;;;19.80;99.90;;;;;;5049627;28;20666;-50
2021/07/05 08:24:03;;;;;;;4.03;2.63;;;19.80;99.90;;;;;;5050375;28;20661;-51
2021/07/05 08:26:31;;;;;;;6.40;3.33;;;19.80;99.90;;;;;;5049751;28;21304;-50
2021/07/05 08:28:58;;;;;;;2.70;2.47;;;19.90;99.90;;;;;;5049805;28;21610;-51
2021/07/05 08:31:25;;;;;;;3.90;2.80;;;20.00;99.90;;;;;;5049429;28;21465;-50
2021/07/05 08:33:54;;;;;;;2.90;2.50;;;20.00;99.80;;;;;;5049997;28;20658;-50
2021/07/05 08:36:21;;;;;;;2.90;2.60;;;20.10;99.60;;;;;;5050159;28;20700;-50
2021/07/05 08:38:48;;;;;;;3.03;2.73;;;20.20;99.30;;;;;;5050287;28;20630;-51
2021/07/05 08:41:16;;;;;;;3.20;2.90;;;20.20;99.20;;;;;;5050137;28;20626;-50
2021/07/05 08:43:44;;;;;;;4.00;2.37;;;20.20;98.80;;;;;;5049123;28;20693;-51
2021/07/05 08:46:12;;;;;;;3.33;2.40;;;20.30;99.00;;;;;;5049753;28;20669;-50
2021/07/05 08:48:40;;;;;;;4.93;2.73;;;20.40;98.30;;;;;;5050209;28;21221;-50
2021/07/05 08:51:11;;;;;;;4.30;2.30;;;20.50;98.30;;;;;;5049990;28;20630;-50
2021/07/05 08:53:39;;;;;;;2.50;2.30;;;20.60;98.00;;;;;;5050151;28;21194;-51
2021/07/05 08:56:06;;;;;;;2.53;2.20;;;20.70;97.40;;;;;;5050135;28;20682;-49
2021/07/05 08:58:33;;;;;;;3.13;2.83;;;20.70;97.10;;;;;;5049084;28;20641;-50
2021/07/05 09:01:00;;;;;;;2.90;1.80;;;20.80;97.00;;;;;;5049224;28;20663;-50
2021/07/05 09:03:29;;;;;;;3.87;1.80;;;20.80;96.70;;;;;;5049770;28;21214;-50
2021/07/05 09:06:11;;;;;;;2.57;2.37;;;20.90;96.10;;;;;;5049684;28;21167;-50
2021/07/05 09:08:40;;;;;;;1.90;1.33;;;20.90;96.00;;;;;;5049221;28;20680;-50
2021/07/05 09:11:08;;;;;;;2.70;2.50;;;20.90;95.90;;;;;;5048972;28;20662;-51
2021/07/05 09:13:45;;;;;;;4.00;3.00;;;21.00;95.50;;;;;;5049280;28;21155;-50
2021/07/05 09:16:13;;;;;;;3.07;1.70;;;21.00;95.90;;;;;;5049663;28;20689;-49
2021/07/05 09:18:44;;;;;;;3.63;2.00;;;20.90;95.50;;;;;;5049659;28;20627;-51
2021/07/05 09:21:22;;;;;;;2.20;1.83;;;21.00;95.20;;;;;;5049762;28;20654;-51
2021/07/05 09:23:57;;;;;;;3.00;1.93;;;21.10;95.40;;;;;;5049501;28;20973;-51
2021/07/05 09:26:27;;;;;;;3.47;2.00;;;21.20;94.80;;;;;;5048485;28;20657;-51
2021/07/05 09:28:54;;;;;;;2.80;1.67;;;21.40;94.20;;;;;;5049354;28;20658;-49
2021/07/05 09:31:42;;;;;;;3.87;1.77;;;21.50;94.20;;;;;;5049308;28;20665;-50
2021/07/05 09:34:18;;;;;;;2.17;2.07;;;21.60;93.90;;;;;;5048992;28;20664;-50
2021/07/05 09:36:46;;;;;;;7.73;2.60;;;21.60;93.70;;;;;;5048977;28;20819;-47
2021/07/05 09:39:16;;;;;;;4.40;2.33;;;21.60;94.00;;;;;;5049225;28;21082;-50
2021/07/05 09:41:43;;;;;;;2.47;2.10;;;21.60;94.00;;;;;;5049035;28;20708;-49
2021/07/05 09:44:12;;;;;;;2.40;2.20;;;21.60;93.80;;;;;;5049203;28;21312;-48
2021/07/05 09:46:43;;;;;;;1.77;1.67;;;21.60;93.60;;;;;;5029125;28;20691;-49
2021/07/05 09:49:17;;;;;;;1.97;1.77;;;21.60;93.60;;;;;;5029175;28;20634;-48
2021/07/05 09:51:46;;;;;;;4.50;2.60;;;21.60;93.90;;;;;;5029430;28;20622;-49
2021/07/05 09:54:17;;;;;;;5.63;2.17;;;21.60;93.50;;;;;;5029068;28;20654;-48
2021/07/05 09:56:45;;;;;;;4.60;3.77;;;21.60;93.20;;;;;;5037321;28;20670;-49
2021/07/05 09:59:17;;;;;;;2.50;2.40;;;21.60;93.20;;;;;;5053094;28;20657;-48
2021/07/05 10:01:45;;;;;;;2.80;2.60;;;21.60;93.20;;;;;;5052808;28;20626;-50
2021/07/05 10:04:16;;;;;;;3.20;3.00;;;21.60;93.60;;;;;;5052648;28;20789;-49
2021/07/05 10:06:46;;;;;;;3.30;2.70;;;21.50;93.70;;;;;;5052812;28;20685;-48
2021/07/05 10:09:14;;;;;;;5.17;2.50;;;21.60;93.80;;;;;;5052358;28;20637;-49
2021/07/05 10:11:43;;;;;;;5.40;2.70;;;21.60;93.90;;;;;;5052588;28;20645;-48
2021/07/05 10:14:13;;;;;;;2.97;2.60;;;21.60;94.00;;;;;;5052117;28;20662;-48
2021/07/05 10:16:41;;;;;;;2.57;2.20;;;21.60;93.50;;;;;;5031685;28;20646;-49
2021/07/05 10:19:08;;;;;;;3.00;2.07;;;21.50;93.20;;;;;;5031922;28;20746;-48
2021/07/05 10:21:36;;;;;;;2.43;1.70;;;21.50;93.20;;;;;;5038417;28;20657;-49
2021/07/05 10:24:06;;;;;;;2.67;2.43;;;21.50;93.50;;;;;;5051312;28;21313;-49
2021/07/05 10:26:34;;;;;;;3.33;2.20;;;21.50;93.70;;;;;;5051499;28;20669;-49
2021/07/05 10:29:01;;;;;;;2.37;1.83;;;21.40;93.20;;;;;;5051203;28;20661;-49
2021/07/05 10:31:28;;;;;;;2.63;2.43;;;21.40;93.20;;;;;;5051493;28;20974;-49
2021/07/05 10:33:58;;;;;;;5.20;2.87;;;21.40;93.20;;;;;;5051312;28;20656;-50
2021/07/05 10:36:25;;;;;;;2.50;1.90;;;21.40;93.10;;;;;;5051801;28;20657;-47
2021/07/05 10:38:55;;;;;;;2.83;2.30;;;21.40;93.20;;;;;;5052514;28;20736;-48
2021/07/05 10:41:32;;;;;;;4.03;2.60;;;21.40;93.20;;;;;;5051713;28;20646;-48
2021/07/05 10:44:03;;;;;;;3.10;2.33;;;21.40;93.30;;;;;;5051676;28;20697;-49
2021/07/05 10:46:42;;;;;;;2.13;1.93;;;21.40;93.50;;;;;;5051449;28;20694;-49
2021/07/05 10:49:15;;;;;;;3.70;2.10;;;21.40;93.50;;;;;;5051444;28;20653;-51
2021/07/05 10:51:42;;;;;;;2.67;1.87;;;21.30;93.20;;;;;;5050916;28;20681;-49
2021/07/05 10:54:10;;;;;;;5.40;2.50;;;21.30;93.20;;;;;;5051412;28;21244;-49
2021/07/05 10:56:43;;;;;;;3.53;2.27;;;21.30;93.20;;;;;;5052062;28;20638;-49
2021/07/05 10:59:41;;;;;;;4.80;1.80;;;21.30;93.20;;;;;;5051591;28;20930;-49
2021/07/05 11:02:45;;;;;;;7.03;2.03;;;21.30;93.40;;;;;;5050990;28;20680;-49
2021/07/05 11:05:33;;;;;;;3.40;3.00;;;21.20;93.60;;;;;;5050944;28;21154;-50
2021/07/05 11:08:23;;;;;;;2.90;2.23;;;21.20;93.40;;;;;;5049583;28;20706;-49
2021/07/05 11:10:54;;;;;;;1.90;1.70;;;21.20;93.40;;;;;;5050885;28;20630;-49
2021/07/05 11:13:22;;;;;;;4.03;2.10;;;21.20;93.00;;;;;;5050887;28;20634;-49
2021/07/05 11:15:53;;;;;;;2.07;1.97;;;21.20;92.70;;;;;;5050454;28;20662;-49
2021/07/05 11:19:09;;;;;;;2.90;2.23;;;21.30;92.90;;;;;;5050903;28;20630;-48
2021/07/05 11:21:56;;;;;;;1.90;1.80;;;21.30;93.00;;;;;;5050829;28;20614;-51
2021/07/05 11:24:35;;;;;;;2.37;1.87;;;21.40;92.60;;;;;;5049782;28;20693;-49
2021/07/05 11:27:24;;;;;;;3.53;2.50;;;21.50;92.00;;;;;;5050908;28;20665;-48
2021/07/05 11:29:53;;;;;;;5.17;2.37;;;21.60;91.80;;;;;;5050886;28;20622;-49
2021/07/05 11:32:33;;;;;;;2.20;1.70;;;21.60;91.70;;;;;;5051045;28;20618;-49
2021/07/05 11:35:01;;;;;;;2.90;1.47;;;21.80;91.80;;;;;;5050763;28;20675;-50
2021/07/05 11:37:32;;;;;;;5.73;1.57;;;21.90;91.60;;;;;;5051163;28;20730;-49
2021/07/05 11:39:59;;;;;;;2.10;1.40;;;22.10;91.60;;;;;;5050931;28;20626;-49
2021/07/05 11:42:57;;;;;;;3.60;2.00;;;22.20;90.60;;;;;;5051247;28;21175;-48
2021/07/05 11:45:41;;;;;;;2.03;1.37;;;22.10;90.60;;;;;;5050211;28;20626;-50
2021/07/05 11:48:09;;;;;;;2.43;1.90;;;22.10;90.50;;;;;;5050632;28;20618;-48
2021/07/05 11:50:39;;;;;;;1.73;1.60;;;22.20;90.60;;;;;;5050534;28;20656;-49
2021/07/05 11:53:06;;;;;;;3.00;1.50;;;22.30;90.70;;;;;;5051242;28;20684;-48
2021/07/05 11:55:34;;;;;;;2.90;1.23;;;22.30;90.10;;;;;;5051162;28;21182;-49
2021/07/05 11:58:05;;;;;;;3.43;1.80;;;22.30;90.00;;;;;;5051436;28;20630;-49
2021/07/05 12:00:34;;;;;;;1.67;1.57;;;22.30;90.20;;;;;;5050598;28;20683;-50
2021/07/05 12:03:03;;;;;;;4.10;2.70;;;22.30;90.40;;;;;;5051111;28;20642;-49
2021/07/05 12:05:31;;;;;;;2.60;1.70;;;22.30;90.50;;;;;;5051320;28;20634;-49
2021/07/05 12:08:05;;;;;;;1.50;1.40;;;22.20;90.60;;;;;;5050420;28;20658;-48
2021/07/05 12:10:33;;;;;;;2.47;2.17;;;22.20;91.00;;;;;;5049406;28;20637;-51
2021/07/05 12:13:20;;;;;;;2.10;1.83;;;22.20;91.30;;;;;;5050125;28;20707;-48
2021/07/05 12:15:55;;;;;;;2.00;1.40;;;22.20;91.40;;;;;;5049878;28;20693;-50
2021/07/05 12:18:24;;;;;;;2.20;2.00;;;22.20;91.40;;;;;;5049524;28;20743;-49
2021/07/05 12:20:56;;;;;;;2.30;2.10;;;22.10;91.70;;;;;;5050010;28;20633;-50
2021/07/05 12:23:24;;;;;;;4.47;1.90;;;22.10;91.90;;;;;;5039781;28;20649;-50
2021/07/05 12:25:51;;;;;;;5.77;2.77;;;22.10;92.10;;;;;;5048532;28;20716;-50
2021/07/05 12:28:18;;;;;;;4.53;2.53;;;22.10;92.20;;;;;;5050784;28;21190;-48
2021/07/05 12:30:47;;;;;;;3.37;3.10;;;22.10;92.30;;;;;;5050228;28;21159;-49
2021/07/05 12:33:15;;;;;;;2.90;2.13;;;22.00;92.40;;;;;;5049986;28;20630;-49
2021/07/05 12:35:43;;;;;;;3.93;2.33;;;22.00;92.60;;;;;;5050793;28;20685;-49
2021/07/05 12:38:11;;;;;;;2.80;1.97;;;22.10;92.70;;;;;;5050293;28;20622;-50
2021/07/05 12:40:39;;;;;;;1.73;1.40;;;22.00;92.60;;;;;;5049491;28;20658;-50
2021/07/05 12:43:07;;;;;;;2.00;1.40;;;22.00;92.80;;;;;;5049808;28;20633;-50
2021/07/05 12:45:36;;;;;;;2.27;1.80;;;22.00;93.00;;;;;;5050240;28;20684;-50
2021/07/05 12:48:10;;;;;;;2.87;1.60;;;22.00;92.90;;;;;;5049149;28;20749;-49
2021/07/05 12:50:39;;;;;;;2.40;1.83;;;22.00;93.00;;;;;;5049226;28;20653;-49
2021/07/05 12:53:19;;;;;;;2.47;1.53;;;22.00;93.10;;;;;;5049406;28;20687;-48
2021/07/05 12:55:58;;;;;;;1.50;1.40;;;22.00;92.80;;;;;;5049774;28;20753;-49